Time,TemperatureF,DewpointF,PressureIn,WindDirection,WindDirectionDegrees,WindSpeedMPH,WindSpeedGustMPH,Humidity,HourlyPrecipIn,Conditions,Clouds,dailyrainin,SoftwareType,DateUTC
2013-10-19 00:00:00,58.8,57.7,29.95,NNW,339,0.0,0.0,96,0.00,,,0.00,Wunderground v.1.15,2013-10-19 04:00:00,
2013-10-19 00:05:00,58.9,57.8,29.95,NNW,339,0.0,0.0,96,0.00,,,0.00,Wunderground v.1.15,2013-10-19 04:05:00,
2013-10-19 00:10:00,58.8,57.7,29.94,NNW,339,0.0,0.0,96,0.00,,,0.00,Wunderground v.1.15,2013-10-19 04:10:00,
2013-10-19 00:15:00,58.9,57.8,29.94,NNW,339,0.0,0.0,96,0.00,,,0.00,Wunderground v.1.15,2013-10-19 04:15:00,
2013-10-19 00:20:00,58.9,57.8,29.94,NNW,339,0.0,0.0,96,0.00,,,0.00,Wunderground v.1.15,2013-10-19 04:20:00,
2013-10-19 00:25:00,58.9,57.8,29.94,NNW,339,0.0,0.0,96,0.00,,,0.00,Wunderground v.1.15,2013-10-19 04:25:00,
2013-10-19 00:35:00,58.9,57.8,29.94,NNW,339,0.0,0.0,96,0.00,,,0.00,Wunderground v.1.15,2013-10-19 04:35:00,
2013-10-19 00:45:00,59.0,57.9,29.93,NNW,339,0.0,0.0,96,0.00,,,0.00,Wunderground v.1.15,2013-10-19 04:45:00,
2013-10-19 00:50:00,59.0,57.9,29.93,NNW,339,0.0,0.0,96,0.00,,,0.00,Wunderground v.1.15,2013-10-19 04:50:00,
2013-10-19 00:55:00,58.9,57.8,29.94,NNW,339,0.0,0.0,96,0.00,,,0.00,Wunderground v.1.15,2013-10-19 04:55:00,
2013-10-19 01:05:00,59.0,57.9,29.93,NNW,339,0.0,0.0,96,0.00,,,0.00,Wunderground v.1.15,2013-10-19 05:05:00,
2013-10-19 01:10:00,59.1,58.0,29.93,NNW,339,0.0,0.0,96,0.00,,,0.00,Wunderground v.1.15,2013-10-19 05:10:00,
2013-10-19 01:15:00,59.1,58.0,29.93,NNW,339,0.0,0.0,96,0.00,,,0.00,Wunderground v.1.15,2013-10-19 05:15:00,
2013-10-19 01:20:00,59.1,58.0,29.93,NNW,339,0.0,0.0,96,0.00,,,0.00,Wunderground v.1.15,2013-10-19 05:20:00,
2013-10-19 01:25:00,59.2,58.1,29.92,NNW,339,0.0,0.0,96,0.00,,,0.00,Wunderground v.1.15,2013-10-19 05:25:00,
2013-10-19 01:35:00,59.2,58.1,29.92,NNW,339,0.0,0.0,96,0.00,,,0.00,Wunderground v.1.15,2013-10-19 05:35:00,
2013-10-19 01:45:00,59.0,57.9,29.92,NNW,339,0.0,0.0,96,0.00,,,0.00,Wunderground v.1.15,2013-10-19 05:45:00,
2013-10-19 01:55:00,59.0,57.6,29.92,NNW,339,0.0,0.0,95,0.00,,,0.00,Wunderground v.1.15,2013-10-19 05:55:00,
2013-10-19 02:05:00,59.1,58.0,29.92,NNW,339,0.0,0.0,96,0.00,,,0.00,Wunderground v.1.15,2013-10-19 06:05:00,
2013-10-19 02:15:00,59.1,58.0,29.92,NNW,339,0.0,0.0,96,0.00,,,0.00,Wunderground v.1.15,2013-10-19 06:15:00,
2013-10-19 02:25:00,59.1,58.0,29.91,NNW,339,0.0,0.0,96,0.00,,,0.00,Wunderground v.1.15,2013-10-19 06:25:00,
2013-10-19 02:30:00,59.1,57.7,29.91,NNW,339,0.0,0.0,95,0.00,,,0.00,Wunderground v.1.15,2013-10-19 06:30:00,
2013-10-19 02:40:00,59.0,57.9,29.92,NNW,339,0.0,0.0,96,0.00,,,0.00,Wunderground v.1.15,2013-10-19 06:40:00,
2013-10-19 02:50:00,58.9,57.5,29.91,NNW,339,0.0,0.0,95,0.00,,,0.00,Wunderground v.1.15,2013-10-19 06:50:00,
2013-10-19 03:00:00,58.9,57.8,29.90,NNW,339,0.0,0.0,96,0.00,,,0.00,Wunderground v.1.15,2013-10-19 07:00:00,
2013-10-19 03:10:00,58.8,57.7,29.91,NNW,339,0.0,0.0,96,0.00,,,0.00,Wunderground v.1.15,2013-10-19 07:10:00,
2013-10-19 03:15:00,58.8,57.7,29.91,NNW,339,0.0,0.0,96,0.00,,,0.00,Wunderground v.1.15,2013-10-19 07:15:00,
2013-10-19 03:25:00,58.8,57.4,29.91,NNW,339,0.0,0.0,95,0.00,,,0.00,Wunderground v.1.15,2013-10-19 07:25:00,
2013-10-19 03:35:00,58.8,57.4,29.90,NNW,339,0.0,0.0,95,0.00,,,0.00,Wunderground v.1.15,2013-10-19 07:35:00,
2013-10-19 03:45:00,58.8,57.4,29.90,NNW,339,0.0,0.0,95,0.00,,,0.00,Wunderground v.1.15,2013-10-19 07:45:00,
2013-10-19 03:50:00,58.9,57.8,29.90,NNW,339,0.0,0.0,96,0.00,,,0.00,Wunderground v.1.15,2013-10-19 07:50:00,
2013-10-19 04:00:00,59.0,57.6,29.90,NNW,339,0.0,0.0,95,0.00,,,0.00,Wunderground v.1.15,2013-10-19 08:00:00,
2013-10-19 04:10:00,59.1,57.7,29.90,NNW,339,0.0,0.0,95,0.00,,,0.00,Wunderground v.1.15,2013-10-19 08:10:00,
2013-10-19 04:20:00,59.1,57.7,29.91,NNW,339,0.0,2.0,95,0.00,,,0.00,Wunderground v.1.15,2013-10-19 08:20:00,
2013-10-19 04:30:00,59.1,57.4,29.90,NNE,29,1.0,1.0,94,0.00,,,0.00,Wunderground v.1.15,2013-10-19 08:30:00,
2013-10-19 04:35:00,59.0,57.0,29.91,NNE,32,1.0,1.0,93,0.00,,,0.00,Wunderground v.1.15,2013-10-19 08:35:00,
2013-10-19 04:45:00,59.0,57.3,29.91,NNE,32,0.0,0.0,94,0.00,,,0.00,Wunderground v.1.15,2013-10-19 08:45:00,
2013-10-19 04:55:00,59.0,57.3,29.90,NNE,32,0.0,0.0,94,0.00,,,0.00,Wunderground v.1.15,2013-10-19 08:55:00,
2013-10-19 05:05:00,59.0,57.6,29.90,NNE,32,0.0,0.0,95,0.00,,,0.00,Wunderground v.1.15,2013-10-19 09:05:00,
2013-10-19 05:10:00,59.0,57.3,29.89,NNE,32,0.0,0.0,94,0.00,,,0.00,Wunderground v.1.15,2013-10-19 09:10:00,
2013-10-19 05:20:00,58.9,57.2,29.89,NNE,32,0.0,0.0,94,0.00,,,0.00,Wunderground v.1.15,2013-10-19 09:20:00,
2013-10-19 05:30:00,58.7,57.0,29.90,NNE,32,0.0,0.0,94,0.00,,,0.00,Wunderground v.1.15,2013-10-19 09:30:00,
2013-10-19 05:40:00,58.7,57.3,29.90,NNE,32,0.0,0.0,95,0.00,,,0.00,Wunderground v.1.15,2013-10-19 09:40:00,
2013-10-19 05:45:00,58.6,56.9,29.90,NNE,32,0.0,1.0,94,0.00,,,0.00,Wunderground v.1.15,2013-10-19 09:45:00,
2013-10-19 05:55:00,58.5,56.8,29.90,NNE,32,0.0,0.0,94,0.00,,,0.00,Wunderground v.1.15,2013-10-19 09:55:00,
2013-10-19 06:05:00,58.4,56.7,29.89,NNE,32,0.0,0.0,94,0.00,,,0.00,Wunderground v.1.15,2013-10-19 10:05:00,
2013-10-19 06:10:00,58.3,56.6,29.89,NNE,32,0.0,0.0,94,0.00,,,0.00,Wunderground v.1.15,2013-10-19 10:10:00,
2013-10-19 06:15:00,58.2,56.5,29.90,NNE,32,0.0,0.0,94,0.00,,,0.00,Wunderground v.1.15,2013-10-19 10:15:00,
2013-10-19 06:25:00,58.2,56.8,29.90,NNE,32,0.0,0.0,95,0.00,,,0.00,Wunderground v.1.15,2013-10-19 10:25:00,
2013-10-19 06:35:00,58.0,56.6,29.90,NNE,32,0.0,0.0,95,0.00,,,0.00,Wunderground v.1.15,2013-10-19 10:35:00,
2013-10-19 06:45:00,57.9,56.8,29.89,NNE,32,0.0,0.0,96,0.00,,,0.00,Wunderground v.1.15,2013-10-19 10:45:00,
2013-10-19 06:50:00,57.9,56.5,29.90,NNE,32,0.0,0.0,95,0.00,,,0.00,Wunderground v.1.15,2013-10-19 10:50:00,
2013-10-19 07:00:00,58.0,56.9,29.90,NNE,32,0.0,0.0,96,0.00,,,0.00,Wunderground v.1.15,2013-10-19 11:00:00,
2013-10-19 07:10:00,58.2,56.8,29.90,NNE,32,0.0,0.0,95,0.00,,,0.00,Wunderground v.1.15,2013-10-19 11:10:00,
2013-10-19 07:20:00,58.2,56.8,29.90,NNE,32,0.0,0.0,95,0.00,,,0.00,Wunderground v.1.15,2013-10-19 11:20:00,
2013-10-19 07:25:00,58.2,56.8,29.90,NNE,32,0.0,0.0,95,0.00,,,0.00,Wunderground v.1.15,2013-10-19 11:25:00,
2013-10-19 07:35:00,58.3,56.9,29.90,NNE,32,0.0,0.0,95,0.00,,,0.00,Wunderground v.1.15,2013-10-19 11:35:00,
2013-10-19 07:45:00,58.4,57.3,29.89,NNE,32,0.0,0.0,96,0.00,,,0.00,Wunderground v.1.15,2013-10-19 11:45:00,
2013-10-19 07:55:00,58.5,57.4,29.89,NNE,32,0.0,0.0,96,0.00,,,0.00,Wunderground v.1.15,2013-10-19 11:55:00,
2013-10-19 08:00:00,58.6,57.5,29.89,NNE,32,0.0,0.0,96,0.00,,,0.00,Wunderground v.1.15,2013-10-19 12:00:00,
2013-10-19 08:10:00,58.7,57.3,29.90,NNE,32,0.0,0.0,95,0.00,,,0.00,Wunderground v.1.15,2013-10-19 12:10:00,
2013-10-19 08:20:00,58.9,57.5,29.90,NNE,32,0.0,1.0,95,0.00,,,0.00,Wunderground v.1.15,2013-10-19 12:20:00,
2013-10-19 08:30:00,59.1,58.0,29.91,NNE,32,0.0,0.0,96,0.00,,,0.00,Wunderground v.1.15,2013-10-19 12:30:00,
2013-10-19 08:35:00,59.2,58.1,29.91,NNE,32,0.0,0.0,96,0.00,,,0.00,Wunderground v.1.15,2013-10-19 12:35:00,
2013-10-19 08:45:00,59.4,58.3,29.91,NNE,32,0.0,0.0,96,0.00,,,0.00,Wunderground v.1.15,2013-10-19 12:45:00,
2013-10-19 08:55:00,59.6,58.7,29.91,NNE,32,0.0,0.0,97,0.00,,,0.00,Wunderground v.1.15,2013-10-19 12:55:00,
2013-10-19 09:05:00,59.8,58.9,29.91,NNE,32,0.0,0.0,97,0.00,,,0.00,Wunderground v.1.15,2013-10-19 13:05:00,
2013-10-19 09:10:00,59.9,59.0,29.91,NNE,32,0.0,0.0,97,0.00,,,0.00,Wunderground v.1.15,2013-10-19 13:10:00,
2013-10-19 09:20:00,60.1,59.2,29.91,NNE,32,0.0,0.0,97,0.00,,,0.00,Wunderground v.1.15,2013-10-19 13:20:00,
2013-10-19 09:30:00,60.2,59.3,29.91,NNE,32,0.0,0.0,97,0.00,,,0.00,Wunderground v.1.15,2013-10-19 13:30:00,
2013-10-19 09:40:00,60.3,59.4,29.91,NNE,32,0.0,0.0,97,0.00,,,0.00,Wunderground v.1.15,2013-10-19 13:40:00,
2013-10-19 09:45:00,60.4,59.5,29.90,NNE,32,0.0,0.0,97,0.00,,,0.00,Wunderground v.1.15,2013-10-19 13:45:00,
2013-10-19 09:55:00,60.7,60.1,29.90,NNE,32,0.0,0.0,98,0.00,,,0.00,Wunderground v.1.15,2013-10-19 13:55:00,
2013-10-19 10:05:00,61.0,60.4,29.90,NNE,32,0.0,0.0,98,0.00,,,0.00,Wunderground v.1.15,2013-10-19 14:05:00,
2013-10-19 10:10:00,61.1,60.5,29.90,NNE,32,0.0,0.0,98,0.00,,,0.00,Wunderground v.1.15,2013-10-19 14:10:00,
2013-10-19 10:20:00,61.5,60.9,29.90,NNE,32,0.0,1.0,98,0.00,,,0.00,Wunderground v.1.15,2013-10-19 14:20:00,
2013-10-19 10:30:00,61.9,61.3,29.90,NNE,32,0.0,1.0,98,0.00,,,0.00,Wunderground v.1.15,2013-10-19 14:30:00,
2013-10-19 10:40:00,62.1,61.2,29.89,NNE,32,0.0,0.0,97,0.00,,,0.00,Wunderground v.1.15,2013-10-19 14:40:00,
2013-10-19 10:50:00,62.6,62.0,29.89,NNE,32,0.0,0.0,98,0.00,,,0.00,Wunderground v.1.15,2013-10-19 14:50:00,
2013-10-19 11:00:00,62.9,62.0,29.90,NNE,29,0.0,0.0,97,0.00,,,0.00,Wunderground v.1.15,2013-10-19 15:00:00,
2013-10-19 11:05:00,63.1,62.2,29.89,NNE,29,0.0,0.0,97,0.00,,,0.00,Wunderground v.1.15,2013-10-19 15:05:00,
2013-10-19 11:15:00,63.1,61.9,29.90,NNE,29,0.0,0.0,96,0.00,,,0.00,Wunderground v.1.15,2013-10-19 15:15:00,
2013-10-19 11:25:00,63.4,62.2,29.90,NNE,29,0.0,0.0,96,0.00,,,0.00,Wunderground v.1.15,2013-10-19 15:25:00,
2013-10-19 11:35:00,63.5,62.3,29.90,NNE,29,0.0,0.0,96,0.00,,,0.00,Wunderground v.1.15,2013-10-19 15:35:00,
2013-10-19 11:45:00,63.8,62.6,29.88,NNE,29,0.0,0.0,96,0.00,,,0.00,Wunderground v.1.15,2013-10-19 15:45:00,
2013-10-19 11:50:00,63.9,62.7,29.88,NNE,29,0.0,0.0,96,0.00,,,0.00,Wunderground v.1.15,2013-10-19 15:50:00,
2013-10-19 12:00:00,64.4,63.2,29.88,NNE,29,0.0,0.0,96,0.00,,,0.00,Wunderground v.1.15,2013-10-19 16:00:00,
2013-10-19 12:10:00,64.6,63.4,29.88,NNE,29,0.0,0.0,96,0.00,,,0.00,Wunderground v.1.15,2013-10-19 16:10:00,
2013-10-19 12:20:00,64.8,63.6,29.87,NNE,29,0.0,0.0,96,0.00,,,0.00,Wunderground v.1.15,2013-10-19 16:20:00,
2013-10-19 12:25:00,64.8,63.3,29.87,NNE,29,0.0,0.0,95,0.00,,,0.00,Wunderground v.1.15,2013-10-19 16:25:00,
2013-10-19 12:35:00,64.9,63.7,29.87,NNE,29,0.0,0.0,96,0.00,,,0.00,Wunderground v.1.15,2013-10-19 16:35:00,
2013-10-19 12:45:00,64.9,63.4,29.85,NNE,29,0.0,1.0,95,0.00,,,0.00,Wunderground v.1.15,2013-10-19 16:45:00,
2013-10-19 12:55:00,65.2,64.0,29.85,NNE,29,0.0,0.0,96,0.00,,,0.00,Wunderground v.1.15,2013-10-19 16:55:00,
2013-10-19 13:05:00,65.3,64.1,29.84,NNE,29,0.0,0.0,96,0.00,,,0.00,Wunderground v.1.15,2013-10-19 17:05:00,
2013-10-19 13:10:00,65.3,64.1,29.84,NNE,29,0.0,0.0,96,0.00,,,0.00,Wunderground v.1.15,2013-10-19 17:10:00,
2013-10-19 13:20:00,65.5,64.3,29.83,NNE,29,0.0,0.0,96,0.00,,,0.00,Wunderground v.1.15,2013-10-19 17:20:00,
2013-10-19 13:30:00,65.8,64.6,29.82,NNE,29,0.0,1.0,96,0.00,,,0.00,Wunderground v.1.15,2013-10-19 17:30:00,
2013-10-19 13:35:00,66.0,64.5,29.82,NNE,29,0.0,1.0,95,0.00,,,0.00,Wunderground v.1.15,2013-10-19 17:35:00,
2013-10-19 13:45:00,66.5,65.0,29.82,NNE,31,0.0,0.0,95,0.00,,,0.00,Wunderground v.1.15,2013-10-19 17:45:00,
2013-10-19 13:55:00,66.9,65.4,29.82,NNE,31,0.0,0.0,95,0.00,,,0.00,Wunderground v.1.15,2013-10-19 17:55:00,
2013-10-19 14:04:00,67.3,65.5,29.82,NE,42,0.0,0.0,94,0.00,,,0.00,Wunderground v.1.15,2013-10-19 18:04:00,
2013-10-19 14:10:00,67.4,65.3,29.82,NE,42,0.0,0.0,93,0.00,,,0.00,Wunderground v.1.15,2013-10-19 18:10:00,
2013-10-19 14:15:00,67.6,65.5,29.82,NE,42,0.0,0.0,93,0.00,,,0.00,Wunderground v.1.15,2013-10-19 18:15:00,
2013-10-19 14:25:00,67.7,65.3,29.82,NE,42,0.0,1.0,92,0.00,,,0.00,Wunderground v.1.15,2013-10-19 18:25:00,
2013-10-19 14:30:00,67.9,65.5,29.82,North,5,0.0,3.0,92,0.00,,,0.00,Wunderground v.1.15,2013-10-19 18:30:00,
2013-10-19 14:40:00,68.6,65.9,29.82,East,80,0.0,0.0,91,0.00,,,0.00,Wunderground v.1.15,2013-10-19 18:40:00,
2013-10-19 14:50:00,68.7,66.0,29.82,East,80,0.0,0.0,91,0.00,,,0.00,Wunderground v.1.15,2013-10-19 18:50:00,
2013-10-19 15:00:00,68.9,66.2,29.81,East,80,0.0,0.0,91,0.00,,,0.00,Wunderground v.1.15,2013-10-19 19:00:00,
2013-10-19 15:05:00,69.2,66.1,29.81,East,80,0.0,0.0,90,0.00,,,0.00,Wunderground v.1.15,2013-10-19 19:05:00,
2013-10-19 15:20:00,69.5,66.1,29.80,East,80,0.0,0.0,89,0.00,,,0.00,Wunderground v.1.15,2013-10-19 19:20:00,
2013-10-19 15:30:00,69.4,66.7,29.80,East,80,0.0,0.0,91,0.00,,,0.00,Wunderground v.1.15,2013-10-19 19:30:00,
2013-10-19 15:40:00,69.3,65.9,29.80,East,80,0.0,0.0,89,0.00,,,0.00,Wunderground v.1.15,2013-10-19 19:40:00,
2013-10-19 15:50:00,69.3,66.6,29.80,East,80,0.0,0.0,91,0.00,,,0.00,Wunderground v.1.15,2013-10-19 19:50:00,
2013-10-19 16:00:00,69.2,66.5,29.80,East,80,0.0,0.0,91,0.00,,,0.00,Wunderground v.1.15,2013-10-19 20:00:00,
2013-10-19 16:05:00,69.0,66.3,29.79,East,80,0.0,0.0,91,0.00,,,0.00,Wunderground v.1.15,2013-10-19 20:05:00,
2013-10-19 16:20:00,68.5,65.8,29.79,East,80,0.0,0.0,91,0.00,,,0.00,Wunderground v.1.15,2013-10-19 20:20:00,
2013-10-19 16:30:00,68.2,65.8,29.78,East,80,0.0,0.0,92,0.00,,,0.00,Wunderground v.1.15,2013-10-19 20:30:00,
2013-10-19 16:40:00,68.0,65.6,29.78,East,80,0.0,0.0,92,0.00,,,0.00,Wunderground v.1.15,2013-10-19 20:40:00,
2013-10-19 16:50:00,67.6,65.5,29.78,East,80,0.0,0.0,93,0.00,,,0.00,Wunderground v.1.15,2013-10-19 20:50:00,
2013-10-19 16:55:00,67.5,65.4,29.80,East,80,0.0,1.0,93,0.00,,,0.00,Wunderground v.1.15,2013-10-19 20:55:00,
2013-10-19 17:05:00,67.6,65.5,29.81,East,80,0.0,0.0,93,0.00,,,0.00,Wunderground v.1.15,2013-10-19 21:05:00,
2013-10-19 17:15:00,67.6,65.2,29.82,East,80,0.0,0.0,92,0.00,,,0.00,Wunderground v.1.15,2013-10-19 21:15:00,
2013-10-19 17:25:00,67.5,65.4,29.82,East,80,0.0,0.0,93,0.00,,,0.00,Wunderground v.1.15,2013-10-19 21:25:00,
2013-10-19 17:35:00,67.3,65.5,29.82,East,80,0.0,0.0,94,0.00,,,0.00,Wunderground v.1.15,2013-10-19 21:35:00,
2013-10-19 17:45:00,67.0,65.2,29.82,East,80,0.0,0.0,94,0.00,,,0.00,Wunderground v.1.15,2013-10-19 21:45:00,
2013-10-19 17:50:00,66.8,65.0,29.82,East,80,0.0,0.0,94,0.00,,,0.00,Wunderground v.1.15,2013-10-19 21:50:00,
2013-10-19 18:00:00,66.5,65.0,29.82,East,80,0.0,0.0,95,0.00,,,0.00,Wunderground v.1.15,2013-10-19 22:00:00,
2013-10-19 18:10:00,66.3,64.8,29.82,East,80,0.0,0.0,95,0.00,,,0.00,Wunderground v.1.15,2013-10-19 22:10:00,
2013-10-19 18:20:00,66.2,64.7,29.82,East,80,0.0,0.0,95,0.00,,,0.00,Wunderground v.1.15,2013-10-19 22:20:00,
2013-10-19 19:00:00,65.2,64.3,29.83,East,80,0.0,0.0,97,0.00,,,0.01,Wunderground v.1.15,2013-10-19 23:00:00,
2013-10-19 19:10:00,65.0,64.1,29.83,East,80,0.0,0.0,97,0.00,,,0.01,Wunderground v.1.15,2013-10-19 23:10:00,
2013-10-19 19:20:00,64.7,63.8,29.82,East,80,0.0,0.0,97,0.00,,,0.01,Wunderground v.1.15,2013-10-19 23:20:00,
2013-10-19 19:25:00,64.6,63.7,29.82,East,80,0.0,0.0,97,0.00,,,0.01,Wunderground v.1.15,2013-10-19 23:25:00,
2013-10-19 19:35:00,64.4,63.5,29.82,East,80,0.0,0.0,97,0.00,,,0.01,Wunderground v.1.15,2013-10-19 23:35:00,
2013-10-19 19:45:00,64.2,63.3,29.83,East,80,0.0,0.0,97,0.00,,,0.01,Wunderground v.1.15,2013-10-19 23:45:00,
2013-10-19 19:55:00,64.0,63.4,29.83,East,80,0.0,0.0,98,0.00,,,0.01,Wunderground v.1.15,2013-10-19 23:55:00,
2013-10-19 20:05:00,63.7,63.1,29.83,East,80,0.0,0.0,98,0.00,,,0.01,Wunderground v.1.15,2013-10-20 00:05:00,
2013-10-19 20:15:00,63.5,62.9,29.83,East,80,0.0,0.0,98,0.00,,,0.01,Wunderground v.1.15,2013-10-20 00:15:00,
2013-10-19 20:25:00,63.4,62.8,29.84,East,80,0.0,0.0,98,0.00,,,0.01,Wunderground v.1.15,2013-10-20 00:25:00,
2013-10-19 20:35:00,63.3,62.7,29.84,East,80,0.0,0.0,98,0.00,,,0.01,Wunderground v.1.15,2013-10-20 00:35:00,
2013-10-19 20:40:00,63.3,62.7,29.84,East,80,0.0,0.0,98,0.00,,,0.01,Wunderground v.1.15,2013-10-20 00:40:00,
2013-10-19 20:50:00,63.2,62.6,29.85,East,80,0.0,0.0,98,0.00,,,0.01,Wunderground v.1.15,2013-10-20 00:50:00,
2013-10-19 21:00:00,63.1,62.5,29.85,East,80,0.0,0.0,98,0.00,,,0.01,Wunderground v.1.15,2013-10-20 01:00:00,
2013-10-19 21:05:00,63.0,62.4,29.85,East,80,0.0,0.0,98,0.00,,,0.01,Wunderground v.1.15,2013-10-20 01:05:00,
2013-10-19 21:15:00,62.8,62.2,29.85,East,80,0.0,0.0,98,0.00,,,0.01,Wunderground v.1.15,2013-10-20 01:15:00,
2013-10-19 21:20:00,62.7,62.1,29.86,East,80,0.0,0.0,98,0.00,,,0.01,Wunderground v.1.15,2013-10-20 01:20:00,
2013-10-19 21:30:00,62.5,61.9,29.86,East,80,0.0,0.0,98,0.00,,,0.01,Wunderground v.1.15,2013-10-20 01:30:00,
2013-10-19 21:40:00,62.3,61.7,29.86,East,80,0.0,0.0,98,0.00,,,0.01,Wunderground v.1.15,2013-10-20 01:40:00,
2013-10-19 21:50:00,62.1,61.5,29.86,East,80,0.0,0.0,98,0.00,,,0.01,Wunderground v.1.15,2013-10-20 01:50:00,
2013-10-19 22:00:00,61.8,61.2,29.86,East,80,0.0,0.0,98,0.00,,,0.01,Wunderground v.1.15,2013-10-20 02:00:00,
2013-10-19 22:05:00,61.7,61.1,29.86,East,80,0.0,0.0,98,0.00,,,0.01,Wunderground v.1.15,2013-10-20 02:05:00,
2013-10-19 22:15:00,61.4,60.8,29.86,East,80,0.0,0.0,98,0.00,,,0.01,Wunderground v.1.15,2013-10-20 02:15:00,
2013-10-19 22:25:00,61.2,60.6,29.86,East,80,0.0,0.0,98,0.00,,,0.01,Wunderground v.1.15,2013-10-20 02:25:00,
2013-10-19 22:35:00,61.0,60.4,29.86,East,80,0.0,0.0,98,0.00,,,0.01,Wunderground v.1.15,2013-10-20 02:35:00,
2013-10-19 22:45:00,60.7,60.1,29.86,East,80,0.0,0.0,98,0.00,,,0.01,Wunderground v.1.15,2013-10-20 02:45:00,
2013-10-19 22:50:00,60.6,60.0,29.86,East,80,0.0,0.0,98,0.00,,,0.01,Wunderground v.1.15,2013-10-20 02:50:00,
2013-10-19 23:00:00,60.4,59.8,29.86,East,80,0.0,0.0,98,0.00,,,0.01,Wunderground v.1.15,2013-10-20 03:00:00,
2013-10-19 23:10:00,60.2,59.6,29.86,East,80,0.0,0.0,98,0.00,,,0.01,Wunderground v.1.15,2013-10-20 03:10:00,
2013-10-19 23:15:00,60.1,59.5,29.87,East,80,0.0,0.0,98,0.00,,,0.01,Wunderground v.1.15,2013-10-20 03:15:00,
2013-10-19 23:20:00,59.9,59.3,29.87,East,80,0.0,0.0,98,0.00,,,0.01,Wunderground v.1.15,2013-10-20 03:20:00,
2013-10-19 23:30:00,59.8,59.2,29.87,East,80,0.0,0.0,98,0.00,,,0.01,Wunderground v.1.15,2013-10-20 03:30:00,
2013-10-19 23:40:00,59.5,58.9,29.87,East,80,0.0,0.0,98,0.00,,,0.01,Wunderground v.1.15,2013-10-20 03:40:00,
2013-10-19 23:50:00,59.3,58.7,29.87,East,80,0.0,0.0,98,0.00,,,0.01,Wunderground v.1.15,2013-10-20 03:50:00,